sensor_id;sensor_type;location;lat;lon;timestamp;pressure;altitude;pressure_sealevel;temperature;humidity
62150;BME280;48134;53.586;10.610;2022-08-02T00:02:23;101267.47;;;11.50;100.00
62150;BME280;48134;53.586;10.610;2022-08-02T00:04:51;101258.50;;;11.49;100.00
62150;BME280;48134;53.586;10.610;2022-08-02T00:07:19;101268.56;;;11.49;100.00
62150;BME280;48134;53.586;10.610;2022-08-02T00:09:47;101266.09;;;11.47;100.00
62150;BME280;48134;53.586;10.610;2022-08-02T00:12:16;101273.47;;;11.47;100.00
62150;BME280;48134;53.586;10.610;2022-08-02T00:14:45;101269.94;;;11.46;100.00
62150;BME280;48134;53.586;10.610;2022-08-02T00:17:13;101275.38;;;11.46;100.00
62150;BME280;48134;53.586;10.610;2022-08-02T00:19:41;101274.84;;;11.34;100.00
62150;BME280;48134;53.586;10.610;2022-08-02T00:22:09;101277.78;;;11.32;100.00
62150;BME280;48134;53.586;10.610;2022-08-02T00:24:37;101269.06;;;11.25;100.00
62150;BME280;48134;53.586;10.610;2022-08-02T00:27:05;101275.88;;;11.17;100.00
62150;BME280;48134;53.586;10.610;2022-08-02T00:29:34;101274.81;;;11.29;100.00
62150;BME280;48134;53.586;10.610;2022-08-02T00:32:05;101275.91;;;11.28;100.00
62150;BME280;48134;53.586;10.610;2022-08-02T00:34:33;101271.81;;;11.30;100.00
62150;BME280;48134;53.586;10.610;2022-08-02T00:37:02;101274.81;;;11.29;100.00
62150;BME280;48134;53.586;10.610;2022-08-02T00:39:30;101274.25;;;11.27;100.00
62150;BME280;48134;53.586;10.610;2022-08-02T00:41:57;101275.06;;;11.12;100.00
62150;BME280;48134;53.586;10.610;2022-08-02T00:44:26;101285.13;;;11.11;100.00
62150;BME280;48134;53.586;10.610;2022-08-02T00:46:54;101287.84;;;11.11;100.00
62150;BME280;48134;53.586;10.610;2022-08-02T00:49:24;101283.47;;;11.10;100.00
62150;BME280;48134;53.586;10.610;2022-08-02T00:51:52;101288.94;;;11.05;100.00
62150;BME280;48134;53.586;10.610;2022-08-02T00:54:20;101293.28;;;11.01;100.00
62150;BME280;48134;53.586;10.610;2022-08-02T00:56:49;101288.09;;;11.04;100.00
62150;BME280;48134;53.586;10.610;2022-08-02T00:59:18;101285.94;;;11.06;100.00
62150;BME280;48134;53.586;10.610;2022-08-02T01:01:46;101285.38;;;11.04;100.00
62150;BME280;48134;53.586;10.610;2022-08-02T01:04:14;101282.66;;;11.04;100.00
62150;BME280;48134;53.586;10.610;2022-08-02T01:06:46;101285.63;;;11.03;100.00
62150;BME280;48134;53.586;10.610;2022-08-02T01:09:14;101286.44;;;10.98;100.00
62150;BME280;48134;53.586;10.610;2022-08-02T01:11:42;101286.19;;;11.00;100.00
62150;BME280;48134;53.586;10.610;2022-08-02T01:14:11;101284.28;;;10.95;100.00
62150;BME280;48134;53.586;10.610;2022-08-02T01:16:42;101290.50;;;10.91;100.00
62150;BME280;48134;53.586;10.610;2022-08-02T01:19:27;101287.78;;;10.91;100.00
62150;BME280;48134;53.586;10.610;2022-08-02T01:25:01;101296.72;;;10.81;100.00
62150;BME280;48134;53.586;10.610;2022-08-02T01:27:36;101296.75;;;10.86;100.00
62150;BME280;48134;53.586;10.610;2022-08-02T01:30:08;101294.28;;;10.79;100.00
62150;BME280;48134;53.586;10.610;2022-08-02T01:32:40;101304.09;;;10.80;100.00
62150;BME280;48134;53.586;10.610;2022-08-02T01:35:14;101295.91;;;10.80;100.00
62150;BME280;48134;53.586;10.610;2022-08-02T01:37:45;101297.56;;;10.81;100.00
62150;BME280;48134;53.586;10.610;2022-08-02T01:40:15;101303.78;;;10.77;100.00
62150;BME280;48134;53.586;10.610;2022-08-02T01:42:48;101299.16;;;10.72;100.00
62150;BME280;48134;53.586;10.610;2022-08-02T01:45:18;101300.50;;;10.69;100.00
62150;BME280;48134;53.586;10.610;2022-08-02T01:47:46;101299.41;;;10.70;100.00
62150;BME280;48134;53.586;10.610;2022-08-02T01:50:15;101301.88;;;10.72;100.00
62150;BME280;48134;53.586;10.610;2022-08-02T01:52:50;101299.69;;;10.69;100.00
62150;BME280;48134;53.586;10.610;2022-08-02T01:55:24;101301.31;;;10.65;100.00
62150;BME280;48134;53.586;10.610;2022-08-02T01:57:54;101295.53;;;10.56;100.00
62150;BME280;48134;53.586;10.610;2022-08-02T02:00:25;101302.38;;;10.64;100.00
62150;BME280;48134;53.586;10.610;2022-08-02T02:02:56;101298.28;;;10.61;100.00
62150;BME280;48134;53.586;10.610;2022-08-02T02:05:29;101298.00;;;10.63;100.00
62150;BME280;48134;53.586;10.610;2022-08-02T02:07:59;101298.28;;;10.61;100.00
62150;BME280;48134;53.586;10.610;2022-08-02T02:10:29;101300.44;;;10.54;100.00
62150;BME280;48134;53.586;10.610;2022-08-02T02:13:03;101296.03;;;10.43;100.00
62150;BME280;48134;53.586;10.610;2022-08-02T02:15:39;101284.88;;;10.49;100.00
62150;BME280;48134;53.586;10.610;2022-08-02T02:18:14;101288.69;;;10.48;100.00
62150;BME280;48134;53.586;10.610;2022-08-02T02:20:44;101289.22;;;10.45;100.00
62150;BME280;48134;53.586;10.610;2022-08-02T02:23:13;101290.03;;;10.46;100.00
62150;BME280;48134;53.586;10.610;2022-08-02T02:25:41;101284.03;;;10.38;100.00
62150;BME280;48134;53.586;10.610;2022-08-02T02:28:10;101287.56;;;10.39;100.00
62150;BME280;48134;53.586;10.610;2022-08-02T02:30:41;101293.53;;;10.41;100.00
62150;BME280;48134;53.586;10.610;2022-08-02T02:33:09;101303.00;;;10.33;100.00
62150;BME280;48134;53.586;10.610;2022-08-02T02:35:43;101296.72;;;10.33;100.00
62150;BME280;48134;53.586;10.610;2022-08-02T02:38:15;101301.16;;;10.39;100.00
62150;BME280;48134;53.586;10.610;2022-08-02T02:40:44;101302.44;;;10.31;100.00
62150;BME280;48134;53.586;10.610;2022-08-02T02:43:12;101303.78;;;10.29;100.00
62150;BME280;48134;53.586;10.610;2022-08-02T02:45:47;101302.69;;;10.30;100.00
62150;BME280;48134;53.586;10.610;2022-08-02T02:48:16;101306.22;;;10.25;100.00
62150;BME280;48134;53.586;10.610;2022-08-02T02:50:44;101301.31;;;10.27;100.00
62150;BME280;48134;53.586;10.610;2022-08-02T02:53:15;101300.72;;;10.20;100.00
62150;BME280;48134;53.586;10.610;2022-08-02T02:55:43;101302.66;;;10.25;100.00
62150;BME280;48134;53.586;10.610;2022-08-02T02:58:13;101294.19;;;10.16;100.00
62150;BME280;48134;53.586;10.610;2022-08-02T03:00:41;101296.34;;;10.14;100.00
62150;BME280;48134;53.586;10.610;2022-08-02T03:03:28;101284.34;;;10.10;100.00
62150;BME280;48134;53.586;10.610;2022-08-02T03:05:57;101287.84;;;10.05;100.00
62150;BME280;48134;53.586;10.610;2022-08-02T03:08:25;101286.44;;;9.97;100.00
62150;BME280;48134;53.586;10.610;2022-08-02T03:10:58;101282.63;;;9.93;100.00
62150;BME280;48134;53.586;10.610;2022-08-02T03:13:26;101289.38;;;9.91;100.00
62150;BME280;48134;53.586;10.610;2022-08-02T03:15:54;101275.19;;;9.83;100.00
62150;BME280;48134;53.586;10.610;2022-08-02T03:18:31;101274.09;;;9.84;100.00
62150;BME280;48134;53.586;10.610;2022-08-02T03:21:00;101277.66;;;9.85;100.00
62150;BME280;48134;53.586;10.610;2022-08-02T03:23:33;101273.56;;;9.82;100.00
62150;BME280;48134;53.586;10.610;2022-08-02T03:26:01;101273.22;;;9.74;100.00
62150;BME280;48134;53.586;10.610;2022-08-02T03:28:34;101263.16;;;9.74;100.00
62150;BME280;48134;53.586;10.610;2022-08-02T03:31:03;101273.78;;;9.76;100.00
62150;BME280;48134;53.586;10.610;2022-08-02T03:33:32;101268.06;;;9.77;100.00
62150;BME280;48134;53.586;10.610;2022-08-02T03:36:01;101272.97;;;9.80;100.00
62150;BME280;48134;53.586;10.610;2022-08-02T03:38:35;101264.00;;;9.80;100.00
62150;BME280;48134;53.586;10.610;2022-08-02T03:41:09;101271.56;;;9.73;100.00
62150;BME280;48134;53.586;10.610;2022-08-02T03:43:42;101270.50;;;9.74;100.00
62150;BME280;48134;53.586;10.610;2022-08-02T03:46:11;101270.53;;;9.79;100.00
62150;BME280;48134;53.586;10.610;2022-08-02T03:48:41;101273.50;;;9.77;100.00
62150;BME280;48134;53.586;10.610;2022-08-02T03:51:09;101278.09;;;9.72;100.00
62150;BME280;48134;53.586;10.610;2022-08-02T03:53:38;101273.81;;;9.81;100.00
62150;BME280;48134;53.586;10.610;2022-08-02T03:56:11;101276.06;;;9.89;100.00
62150;BME280;48134;53.586;10.610;2022-08-02T03:58:39;101267.91;;;9.94;100.00
62150;BME280;48134;53.586;10.610;2022-08-02T04:01:07;101267.91;;;9.89;100.00
62150;BME280;48134;53.586;10.610;2022-08-02T04:03:35;101274.22;;;10.00;100.00
62150;BME280;48134;53.586;10.610;2022-08-02T04:06:04;101276.97;;;10.00;100.00
62150;BME280;48134;53.586;10.610;2022-08-02T04:08:32;101280.22;;;10.02;100.00
62150;BME280;48134;53.586;10.610;2022-08-02T04:11:00;101281.59;;;10.04;100.00
62150;BME280;48134;53.586;10.610;2022-08-02T04:13:46;101284.38;;;10.15;100.00
62150;BME280;48134;53.586;10.610;2022-08-02T04:16:19;101278.44;;;10.23;100.00
62150;BME280;48134;53.586;10.610;2022-08-02T04:18:49;101285.00;;;10.27;100.00
62150;BME280;48134;53.586;10.610;2022-08-02T04:21:19;101275.75;;;10.28;100.00
62150;BME280;48134;53.586;10.610;2022-08-02T04:23:48;101274.41;;;10.31;100.00
62150;BME280;48134;53.586;10.610;2022-08-02T04:26:17;101283.13;;;10.33;100.00
62150;BME280;48134;53.586;10.610;2022-08-02T04:28:46;101287.81;;;10.37;100.00
62150;BME280;48134;53.586;10.610;2022-08-02T04:31:15;101278.59;;;10.44;100.00
62150;BME280;48134;53.586;10.610;2022-08-02T04:33:43;101285.16;;;10.48;100.00
62150;BME280;48134;53.586;10.610;2022-08-02T04:36:12;101287.88;;;10.48;100.00
62150;BME280;48134;53.586;10.610;2022-08-02T04:38:42;101283.50;;;10.42;100.00
62150;BME280;48134;53.586;10.610;2022-08-02T04:41:10;101283.25;;;10.53;100.00
62150;BME280;48134;53.586;10.610;2022-08-02T04:43:38;101272.97;;;10.66;100.00
62150;BME280;48134;53.586;10.610;2022-08-02T04:46:06;101279.56;;;10.75;100.00
62150;BME280;48134;53.586;10.610;2022-08-02T04:48:39;101282.56;;;10.84;100.00
62150;BME280;48134;53.586;10.610;2022-08-02T04:51:12;101290.22;;;10.92;100.00
62150;BME280;48134;53.586;10.610;2022-08-02T04:53:46;101287.81;;;11.01;100.00
62150;BME280;48134;53.586;10.610;2022-08-02T04:56:19;101303.34;;;11.05;100.00
62150;BME280;48134;53.586;10.610;2022-08-02T04:58:47;101293.00;;;11.02;100.00
62150;BME280;48134;53.586;10.610;2022-08-02T05:01:20;101300.91;;;11.14;100.00
62150;BME280;48134;53.586;10.610;2022-08-02T05:03:48;101306.44;;;11.30;100.00
62150;BME280;48134;53.586;10.610;2022-08-02T05:06:21;101294.44;;;11.36;100.00
62150;BME280;48134;53.586;10.610;2022-08-02T05:08:55;101296.91;;;11.53;100.00
62150;BME280;48134;53.586;10.610;2022-08-02T05:11:28;101292.00;;;11.65;100.00
62150;BME280;48134;53.586;10.610;2022-08-02T05:14:01;101294.19;;;11.63;100.00
62150;BME280;48134;53.586;10.610;2022-08-02T05:16:34;101290.09;;;11.76;100.00
62150;BME280;48134;53.586;10.610;2022-08-02T05:19:07;101284.63;;;11.91;100.00
62150;BME280;48134;53.586;10.610;2022-08-02T05:21:35;101286.28;;;11.77;100.00
62150;BME280;48134;53.586;10.610;2022-08-02T05:24:09;101292.81;;;11.45;100.00
62150;BME280;48134;53.586;10.610;2022-08-02T05:26:42;101302.91;;;11.55;100.00
62150;BME280;48134;53.586;10.610;2022-08-02T05:29:15;101292.59;;;11.98;100.00
62150;BME280;48134;53.586;10.610;2022-08-02T05:31:43;101285.50;;;12.88;100.00
62150;BME280;48134;53.586;10.610;2022-08-02T05:34:12;101281.78;;;14.22;100.00
62150;BME280;48134;53.586;10.610;2022-08-02T05:36:40;101278.47;;;15.36;100.00
62150;BME280;48134;53.586;10.610;2022-08-02T05:39:15;101287.81;;;15.35;100.00
62150;BME280;48134;53.586;10.610;2022-08-02T05:41:43;101275.25;;;16.00;100.00
62150;BME280;48134;53.586;10.610;2022-08-02T05:44:16;101281.63;;;15.81;100.00
62150;BME280;48134;53.586;10.610;2022-08-02T05:46:49;101281.44;;;15.92;100.00
62150;BME280;48134;53.586;10.610;2022-08-02T05:49:21;101287.16;;;15.76;100.00
62150;BME280;48134;53.586;10.610;2022-08-02T05:51:51;101294.09;;;14.98;100.00
62150;BME280;48134;53.586;10.610;2022-08-02T05:54:26;101283.41;;;14.77;100.00
62150;BME280;48134;53.586;10.610;2022-08-02T05:56:59;101292.88;;;14.66;100.00
62150;BME280;48134;53.586;10.610;2022-08-02T05:59:30;101299.06;;;14.23;100.00
62150;BME280;48134;53.586;10.610;2022-08-02T06:02:08;101292.56;;;14.14;100.00
62150;BME280;48134;53.586;10.610;2022-08-02T06:04:47;101295.84;;;14.16;100.00
62150;BME280;48134;53.586;10.610;2022-08-02T06:07:18;101288.09;;;14.23;100.00
62150;BME280;48134;53.586;10.610;2022-08-02T06:09:50;101298.72;;;14.29;100.00
62150;BME280;48134;53.586;10.610;2022-08-02T06:12:23;101303.31;;;14.34;100.00
62150;BME280;48134;53.586;10.610;2022-08-02T06:14:52;101302.91;;;14.46;100.00
62150;BME280;48134;53.586;10.610;2022-08-02T06:17:21;101306.59;;;14.36;100.00
62150;BME280;48134;53.586;10.610;2022-08-02T06:19:56;101302.22;;;14.35;100.00
62150;BME280;48134;53.586;10.610;2022-08-02T06:22:24;101301.28;;;14.45;100.00
62150;BME280;48134;53.586;10.610;2022-08-02T06:24:54;101286.50;;;14.46;100.00
62150;BME280;48134;53.586;10.610;2022-08-02T06:27:28;101293.03;;;14.21;100.00
62150;BME280;48134;53.586;10.610;2022-08-02T06:30:02;101287.81;;;14.24;100.00
62150;BME280;48134;53.586;10.610;2022-08-02T06:32:31;101285.78;;;14.35;100.00
62150;BME280;48134;53.586;10.610;2022-08-02T06:35:05;101276.38;;;14.17;100.00
62150;BME280;48134;53.586;10.610;2022-08-02T06:37:40;101287.56;;;14.21;100.00
62150;BME280;48134;53.586;10.610;2022-08-02T06:40:26;101288.28;;;14.32;100.00
62150;BME280;48134;53.586;10.610;2022-08-02T06:42:57;101298.09;;;14.38;100.00
62150;BME280;48134;53.586;10.610;2022-08-02T06:45:32;101295.84;;;14.40;100.00
62150;BME280;48134;53.586;10.610;2022-08-02T06:48:01;101291.44;;;14.44;100.00
62150;BME280;48134;53.586;10.610;2022-08-02T06:50:36;101289.44;;;14.50;100.00
62150;BME280;48134;53.586;10.610;2022-08-02T06:53:05;101276.63;;;14.69;100.00
62150;BME280;48134;53.586;10.610;2022-08-02T06:55:40;101276.22;;;14.81;100.00
62150;BME280;48134;53.586;10.610;2022-08-02T06:58:08;101276.56;;;14.99;100.00
62150;BME280;48134;53.586;10.610;2022-08-02T07:00:42;101276.38;;;14.90;100.00
62150;BME280;48134;53.586;10.610;2022-08-02T07:03:10;101274.69;;;14.94;100.00
62150;BME280;48134;53.586;10.610;2022-08-02T07:05:39;101273.28;;;14.96;100.00
62150;BME280;48134;53.586;10.610;2022-08-02T07:08:07;101277.34;;;14.99;100.00
62150;BME280;48134;53.586;10.610;2022-08-02T07:10:36;101283.88;;;15.03;100.00
62150;BME280;48134;53.586;10.610;2022-08-02T07:13:05;101284.03;;;14.93;100.00
62150;BME280;48134;53.586;10.610;2022-08-02T07:15:33;101282.59;;;14.95;100.00
62150;BME280;48134;53.586;10.610;2022-08-02T07:18:04;101282.84;;;15.18;100.00
62150;BME280;48134;53.586;10.610;2022-08-02T07:20:45;101287.31;;;15.14;100.00
62150;BME280;48134;53.586;10.610;2022-08-02T07:23:13;101280.63;;;15.20;100.00
62150;BME280;48134;53.586;10.610;2022-08-02T07:25:42;101281.88;;;15.28;100.00
62150;BME280;48134;53.586;10.610;2022-08-02T07:28:17;101270.69;;;15.24;100.00
62150;BME280;48134;53.586;10.610;2022-08-02T07:30:45;101269.44;;;15.36;100.00
62150;BME280;48134;53.586;10.610;2022-08-02T07:33:18;101263.75;;;15.65;100.00
62150;BME280;48134;53.586;10.610;2022-08-02T07:35:46;101254.25;;;15.76;100.00
62150;BME280;48134;53.586;10.610;2022-08-02T07:38:14;101261.19;;;15.88;100.00
62150;BME280;48134;53.586;10.610;2022-08-02T07:40:42;101263.88;;;15.93;100.00
62150;BME280;48134;53.586;10.610;2022-08-02T07:43:11;101268.81;;;15.91;100.00
62150;BME280;48134;53.586;10.610;2022-08-02T07:45:41;101266.31;;;15.94;100.00
62150;BME280;48134;53.586;10.610;2022-08-02T07:48:09;101261.75;;;16.04;100.00
62150;BME280;48134;53.586;10.610;2022-08-02T07:50:38;101255.88;;;16.10;100.00
62150;BME280;48134;53.586;10.610;2022-08-02T07:53:06;101256.13;;;15.95;100.00
62150;BME280;48134;53.586;10.610;2022-08-02T07:55:33;101253.09;;;15.96;100.00
62150;BME280;48134;53.586;10.610;2022-08-02T07:58:01;101256.66;;;16.11;100.00
62150;BME280;48134;53.586;10.610;2022-08-02T08:00:34;101259.31;;;16.16;100.00
62150;BME280;48134;53.586;10.610;2022-08-02T08:03:04;101251.41;;;16.28;100.00
62150;BME280;48134;53.586;10.610;2022-08-02T08:05:32;101258.53;;;16.43;100.00
62150;BME280;48134;53.586;10.610;2022-08-02T08:08:06;101269.41;;;16.48;100.00
62150;BME280;48134;53.586;10.610;2022-08-02T08:10:35;101265.31;;;16.60;100.00
62150;BME280;48134;53.586;10.610;2022-08-02T08:13:03;101262.47;;;16.65;100.00
62150;BME280;48134;53.586;10.610;2022-08-02T08:15:31;101264.00;;;16.71;100.00
62150;BME280;48134;53.586;10.610;2022-08-02T08:17:59;101260.53;;;16.79;100.00
62150;BME280;48134;53.586;10.610;2022-08-02T08:20:29;101251.16;;;16.80;100.00
62150;BME280;48134;53.586;10.610;2022-08-02T08:23:02;101246.06;;;16.88;100.00
62150;BME280;48134;53.586;10.610;2022-08-02T08:25:35;101252.69;;;17.00;100.00
62150;BME280;48134;53.586;10.610;2022-08-02T08:28:03;101250.56;;;16.97;100.00
62150;BME280;48134;53.586;10.610;2022-08-02T08:30:31;101253.00;;;16.99;100.00
62150;BME280;48134;53.586;10.610;2022-08-02T08:32:59;101251.56;;;17.02;100.00
62150;BME280;48134;53.586;10.610;2022-08-02T08:35:29;101250.91;;;17.19;100.00
62150;BME280;48134;53.586;10.610;2022-08-02T08:37:56;101241.09;;;17.26;100.00
62150;BME280;48134;53.586;10.610;2022-08-02T08:40:29;101216.88;;;17.37;100.00
62150;BME280;48134;53.586;10.610;2022-08-02T08:43:03;101206.31;;;17.53;100.00
62150;BME280;48134;53.586;10.610;2022-08-02T08:45:31;101203.31;;;17.95;100.00
62150;BME280;48134;53.586;10.610;2022-08-02T08:47:59;101195.41;;;18.02;100.00
62150;BME280;48134;53.586;10.610;2022-08-02T08:50:29;101203.69;;;18.02;100.00
62150;BME280;48134;53.586;10.610;2022-08-02T08:53:00;101195.59;;;18.06;100.00
62150;BME280;48134;53.586;10.610;2022-08-02T08:55:29;101199.94;;;17.98;100.00
62150;BME280;48134;53.586;10.610;2022-08-02T08:58:03;101202.88;;;18.01;100.00
62150;BME280;48134;53.586;10.610;2022-08-02T09:00:33;101196.44;;;18.15;100.00
62150;BME280;48134;53.586;10.610;2022-08-02T09:03:07;101189.31;;;18.14;100.00
62150;BME280;48134;53.586;10.610;2022-08-02T09:05:41;101188.00;;;18.11;100.00
62150;BME280;48134;53.586;10.610;2022-08-02T09:08:17;101186.13;;;18.29;100.00
62150;BME280;48134;53.586;10.610;2022-08-02T09:10:46;101189.56;;;18.44;100.00
62150;BME280;48134;53.586;10.610;2022-08-02T09:13:15;101186.03;;;18.52;100.00
62150;BME280;48134;53.586;10.610;2022-08-02T09:15:43;101163.78;;;18.40;99.20
62150;BME280;48134;53.586;10.610;2022-08-02T09:18:17;101170.13;;;18.66;100.00
62150;BME280;48134;53.586;10.610;2022-08-02T09:20:53;101175.22;;;18.91;100.00
62150;BME280;48134;53.586;10.610;2022-08-02T09:23:25;101178.75;;;18.82;100.00
62150;BME280;48134;53.586;10.610;2022-08-02T09:26:00;101177.66;;;18.92;100.00
62150;BME280;48134;53.586;10.610;2022-08-02T09:28:30;101185.44;;;19.08;100.00
62150;BME280;48134;53.586;10.610;2022-08-02T09:31:02;101181.53;;;19.09;100.00
62150;BME280;48134;53.586;10.610;2022-08-02T09:33:36;101174.88;;;19.10;100.00
62150;BME280;48134;53.586;10.610;2022-08-02T09:36:11;101180.03;;;19.29;100.00
62150;BME280;48134;53.586;10.610;2022-08-02T09:38:39;101178.75;;;19.17;100.00
62150;BME280;48134;53.586;10.610;2022-08-02T09:41:18;101175.50;;;19.24;100.00
62150;BME280;48134;53.586;10.610;2022-08-02T09:43:52;101168.81;;;19.43;100.00
62150;BME280;48134;53.586;10.610;2022-08-02T09:46:21;101164.06;;;19.61;100.00
62150;BME280;48134;53.586;10.610;2022-08-02T09:48:51;101166.31;;;19.67;100.00
62150;BME280;48134;53.586;10.610;2022-08-02T09:51:21;101164.34;;;19.77;100.00
62150;BME280;48134;53.586;10.610;2022-08-02T09:53:50;101153.97;;;19.74;99.14
62150;BME280;48134;53.586;10.610;2022-08-02T09:56:19;101154.28;;;19.81;95.76
62150;BME280;48134;53.586;10.610;2022-08-02T09:58:53;101169.00;;;19.94;96.77
62150;BME280;48134;53.586;10.610;2022-08-02T10:01:29;101170.00;;;19.89;100.00
62150;BME280;48134;53.586;10.610;2022-08-02T10:03:58;101171.31;;;19.83;94.36
62150;BME280;48134;53.586;10.610;2022-08-02T10:06:28;101162.44;;;20.07;100.00
62150;BME280;48134;53.586;10.610;2022-08-02T10:08:56;101157.25;;;20.05;92.24
62150;BME280;48134;53.586;10.610;2022-08-02T10:11:25;101163.25;;;20.08;92.03
62150;BME280;48134;53.586;10.610;2022-08-02T10:13:54;101161.09;;;20.13;91.16
62150;BME280;48134;53.586;10.610;2022-08-02T10:16:27;101154.47;;;20.35;85.53
62150;BME280;48134;53.586;10.610;2022-08-02T10:19:00;101150.22;;;20.68;95.65
62150;BME280;48134;53.586;10.610;2022-08-02T10:21:32;101154.00;;;20.84;98.99
62150;BME280;48134;53.586;10.610;2022-08-02T10:24:09;101150.59;;;21.00;97.51
62150;BME280;48134;53.586;10.610;2022-08-02T10:26:38;101154.75;;;20.94;78.55
62150;BME280;48134;53.586;10.610;2022-08-02T10:29:06;101143.81;;;20.76;78.41
62150;BME280;48134;53.586;10.610;2022-08-02T10:31:36;101144.38;;;21.03;89.89
62150;BME280;48134;53.586;10.610;2022-08-02T10:34:05;101145.06;;;21.00;78.43
62150;BME280;48134;53.586;10.610;2022-08-02T10:36:41;101147.91;;;20.91;74.77
62150;BME280;48134;53.586;10.610;2022-08-02T10:39:09;101146.22;;;20.99;80.19
62150;BME280;48134;53.586;10.610;2022-08-02T10:41:42;101147.44;;;21.22;87.67
62150;BME280;48134;53.586;10.610;2022-08-02T10:44:24;101151.84;;;21.23;76.77
62150;BME280;48134;53.586;10.610;2022-08-02T10:49:50;101145.66;;;21.51;86.23
62150;BME280;48134;53.586;10.610;2022-08-02T10:52:20;101137.25;;;21.48;84.50
62150;BME280;48134;53.586;10.610;2022-08-02T10:54:49;101150.91;;;21.65;84.81
62150;BME280;48134;53.586;10.610;2022-08-02T10:57:19;101147.16;;;21.49;76.44
62150;BME280;48134;53.586;10.610;2022-08-02T10:59:54;101141.44;;;21.54;86.15
62150;BME280;48134;53.586;10.610;2022-08-02T11:02:38;101142.72;;;21.56;82.90
62150;BME280;48134;53.586;10.610;2022-08-02T11:05:12;101128.66;;;21.74;76.20
62150;BME280;48134;53.586;10.610;2022-08-02T11:07:43;101122.22;;;21.82;85.60
62150;BME280;48134;53.586;10.610;2022-08-02T11:10:27;101114.91;;;21.90;81.90
62150;BME280;48134;53.586;10.610;2022-08-02T11:13:04;101115.59;;;22.12;77.24
62150;BME280;48134;53.586;10.610;2022-08-02T11:21:20;101109.72;;;22.13;69.80
62150;BME280;48134;53.586;10.610;2022-08-02T11:23:51;101097.09;;;22.28;74.71
62150;BME280;48134;53.586;10.610;2022-08-02T11:26:43;101096.97;;;22.49;78.28
62150;BME280;48134;53.586;10.610;2022-08-02T11:29:16;101087.47;;;22.50;62.05
62150;BME280;48134;53.586;10.610;2022-08-02T11:31:49;101096.38;;;22.56;68.97
62150;BME280;48134;53.586;10.610;2022-08-02T11:34:23;101081.34;;;22.57;66.28
62150;BME280;48134;53.586;10.610;2022-08-02T11:36:57;101084.31;;;22.36;69.41
62150;BME280;48134;53.586;10.610;2022-08-02T11:39:31;101084.97;;;22.73;70.30
62150;BME280;48134;53.586;10.610;2022-08-02T11:42:04;101092.19;;;22.90;65.54
62150;BME280;48134;53.586;10.610;2022-08-02T11:44:38;101085.66;;;22.99;71.31
62150;BME280;48134;53.586;10.610;2022-08-02T11:47:11;101087.66;;;22.98;73.44
62150;BME280;48134;53.586;10.610;2022-08-02T11:49:45;101083.84;;;22.90;67.68
62150;BME280;48134;53.586;10.610;2022-08-02T11:52:18;101085.31;;;23.00;64.74
62150;BME280;48134;53.586;10.610;2022-08-02T11:54:47;101078.31;;;22.90;65.10
62150;BME280;48134;53.586;10.610;2022-08-02T11:57:16;101083.41;;;22.88;69.51
62150;BME280;48134;53.586;10.610;2022-08-02T11:59:45;101079.00;;;23.16;72.18
62150;BME280;48134;53.586;10.610;2022-08-02T12:02:19;101068.19;;;23.42;73.64
62150;BME280;48134;53.586;10.610;2022-08-02T12:04:53;101069.25;;;23.38;67.37
62150;BME280;48134;53.586;10.610;2022-08-02T12:07:24;101072.47;;;23.24;74.67
62150;BME280;48134;53.586;10.610;2022-08-02T12:09:55;101069.06;;;23.31;73.07
62150;BME280;48134;53.586;10.610;2022-08-02T12:12:25;101076.69;;;23.18;67.91
62150;BME280;48134;53.586;10.610;2022-08-02T12:14:58;101075.09;;;23.33;71.02
62150;BME280;48134;53.586;10.610;2022-08-02T12:17:31;101075.66;;;23.10;69.74
62150;BME280;48134;53.586;10.610;2022-08-02T12:20:17;101071.06;;;23.30;80.89
62150;BME280;48134;53.586;10.610;2022-08-02T12:22:50;101065.69;;;23.37;84.05
62150;BME280;48134;53.586;10.610;2022-08-02T12:25:19;101057.63;;;23.16;80.99
62150;BME280;48134;53.586;10.610;2022-08-02T12:27:51;101054.25;;;23.10;83.74
62150;BME280;48134;53.586;10.610;2022-08-02T12:30:22;101028.59;;;23.14;87.03
62150;BME280;48134;53.586;10.610;2022-08-02T12:33:06;101033.06;;;23.34;80.82
62150;BME280;48134;53.586;10.610;2022-08-02T12:35:39;101027.59;;;23.38;73.70
62150;BME280;48134;53.586;10.610;2022-08-02T12:38:12;101026.53;;;23.26;80.58
62150;BME280;48134;53.586;10.610;2022-08-02T12:40:47;101032.44;;;23.25;79.91
62150;BME280;48134;53.586;10.610;2022-08-02T12:43:16;101029.22;;;23.55;73.79
62150;BME280;48134;53.586;10.610;2022-08-02T12:45:45;101029.59;;;23.89;83.51
62150;BME280;48134;53.586;10.610;2022-08-02T12:48:29;101027.72;;;24.13;70.38
62150;BME280;48134;53.586;10.610;2022-08-02T12:51:16;101016.97;;;24.11;63.08
62150;BME280;48134;53.586;10.610;2022-08-02T12:53:45;101027.91;;;24.20;66.57
62150;BME280;48134;53.586;10.610;2022-08-02T12:56:26;101030.31;;;24.21;65.17
62150;BME280;48134;53.586;10.610;2022-08-02T12:59:00;101023.50;;;24.19;59.80
62150;BME280;48134;53.586;10.610;2022-08-02T13:01:28;101023.94;;;24.21;69.22
62150;BME280;48134;53.586;10.610;2022-08-02T13:04:02;101019.19;;;24.02;60.96
62150;BME280;48134;53.586;10.610;2022-08-02T13:06:35;101031.75;;;24.15;59.91